createdAt,value
2022-08-24T00:01:41.333Z,99884.97
2022-08-24T00:04:32.185Z,99888.06
2022-08-24T00:07:27.332Z,99891.00
2022-08-24T00:10:17.312Z,99887.84
2022-08-24T00:13:05.781Z,99895.41
2022-08-24T00:15:54.239Z,99892.38
2022-08-24T00:18:42.763Z,99889.06
2022-08-24T00:21:31.266Z,99889.06
2022-08-24T00:24:21.148Z,99891.31
2022-08-24T00:27:11.416Z,99884.69
2022-08-24T00:29:59.874Z,99875.59
2022-08-24T00:32:49.009Z,99880.03
2022-08-24T00:35:37.832Z,99898.78
2022-08-24T00:38:27.764Z,99892.91
2022-08-24T00:41:19.693Z,99893.81
2022-08-24T00:44:08.377Z,99892.06
2022-08-24T00:47:00.677Z,99893.38
2022-08-24T00:49:55.484Z,99888.31
2022-08-24T00:52:47.719Z,99884.06
2022-08-24T00:55:38.957Z,99886.63
2022-08-24T00:58:32.950Z,99882.81
2022-08-24T01:01:21.534Z,99884.63
2022-08-24T01:04:10.753Z,99893.53
2022-08-24T01:06:59.590Z,99895.06
2022-08-24T01:09:47.979Z,99894.00
2022-08-24T01:12:37.871Z,99887.91
2022-08-24T01:15:27.662Z,99882.31
2022-08-24T01:18:36.967Z,99884.09
2022-08-24T01:21:28.774Z,99902.91
2022-08-24T01:24:18.649Z,99886.75
2022-08-24T01:27:09.312Z,99898.22
2022-08-24T01:29:58.428Z,99900.16
2022-08-24T01:32:54.198Z,99901.66
2022-08-24T01:35:42.825Z,99899.75
2022-08-24T01:38:31.319Z,99900.03
2022-08-24T01:41:21.191Z,99896.56
2022-08-24T01:44:09.751Z,99897.66
2022-08-24T01:46:58.756Z,99895.44
2022-08-24T01:49:49.396Z,99886.59
2022-08-24T01:53:03.926Z,99887.13
2022-08-24T01:55:51.672Z,99890.97
2022-08-24T01:58:46.574Z,99902.00
2022-08-24T02:01:38.132Z,99897.00
2022-08-24T02:04:26.939Z,99906.00
2022-08-24T02:07:17.033Z,99903.91
2022-08-24T02:10:07.029Z,99899.47
2022-08-24T02:12:58.680Z,99908.72
2022-08-24T02:15:49.213Z,99907.63
2022-08-24T02:18:40.548Z,99907.09
2022-08-24T02:21:29.204Z,99913.88
2022-08-24T02:24:17.835Z,99904.47
2022-08-24T02:27:06.911Z,99901.13
2022-08-24T02:29:56.063Z,99921.88
2022-08-24T02:32:45.842Z,99904.72
2022-08-24T02:35:34.304Z,99916.09
2022-08-24T02:38:23.409Z,99916.38
2022-08-24T02:41:12.126Z,99917.50
2022-08-24T02:44:02.468Z,99922.75
2022-08-24T02:46:50.875Z,99923.88
2022-08-24T02:49:41.840Z,99910.84
2022-08-24T02:52:30.780Z,99922.22
2022-08-24T02:55:20.613Z,99917.38
2022-08-24T02:58:12.993Z,99918.34
2022-08-24T03:01:01.831Z,99915.84
2022-08-24T03:03:50.606Z,99923.63
2022-08-24T03:06:40.512Z,99922.09
2022-08-24T03:09:29.072Z,99913.94
2022-08-24T03:12:19.239Z,99920.59
2022-08-24T03:15:09.830Z,99910.63
2022-08-24T03:17:58.289Z,99908.97
2022-08-24T03:20:49.007Z,99917.00
2022-08-24T03:23:39.283Z,99920.88
2022-08-24T03:26:27.798Z,99918.38
2022-08-24T03:29:16.436Z,99907.47
2022-08-24T03:32:05.760Z,99911.91
2022-08-24T03:34:54.440Z,99914.81
2022-08-24T03:37:42.901Z,99916.09
2022-08-24T03:40:33.865Z,99915.66
2022-08-24T03:43:40.099Z,99916.75
2022-08-24T03:46:29.812Z,99918.97
2022-08-24T03:49:18.313Z,99921.19
2022-08-24T03:52:07.249Z,99923.13
2022-08-24T03:54:56.218Z,99922.00
2022-08-24T03:57:47.094Z,99919.50
2022-08-24T04:00:37.763Z,99914.84
2022-08-24T04:03:26.362Z,99912.88
2022-08-24T04:06:18.144Z,99909.16
2022-08-24T04:09:07.626Z,99915.50
2022-08-24T04:11:59.236Z,99917.03
2022-08-24T04:14:51.846Z,99919.50
2022-08-24T04:17:40.284Z,99928.91
2022-08-24T04:20:28.841Z,99933.22
2022-08-24T04:23:18.939Z,99925.31
2022-08-24T04:26:07.795Z,99929.75
2022-08-24T04:28:56.513Z,99936.66
2022-08-24T04:31:46.910Z,99937.63
2022-08-24T04:34:35.959Z,99936.78
2022-08-24T04:37:28.456Z,99947.56
2022-08-24T04:40:19.370Z,99949.91
2022-08-24T04:43:09.828Z,99961.78
2022-08-24T04:45:59.648Z,99951.22
2022-08-24T04:48:50.310Z,99951.91
2022-08-24T04:51:39.057Z,99962.25
2022-08-24T04:54:29.362Z,99947.56
2022-08-24T04:57:28.109Z,99947.88
2022-08-24T05:00:19.496Z,99986.56
2022-08-24T05:03:08.172Z,99969.69
2022-08-24T05:05:58.076Z,99979.50
2022-08-24T05:08:47.499Z,99969.50
2022-08-24T05:11:37.147Z,99975.84
2022-08-24T05:14:29.239Z,99970.66
2022-08-24T05:17:18.158Z,99956.78
2022-08-24T05:20:08.808Z,99987.34
2022-08-24T05:23:05.043Z,99969.41
2022-08-24T05:25:54.912Z,99984.34
2022-08-24T05:28:43.521Z,99977.88
2022-08-24T05:31:33.748Z,99980.00
2022-08-24T05:34:27.829Z,99986.66
2022-08-24T05:37:16.713Z,99976.59
2022-08-24T05:40:34.231Z,99982.31
2022-08-24T05:43:23.788Z,99974.44
2022-08-24T05:46:12.250Z,99980.09
2022-08-24T05:49:01.236Z,99968.91
2022-08-24T05:51:54.191Z,99979.47
2022-08-24T05:54:43.052Z,99970.69
2022-08-24T05:57:35.195Z,99970.09
2022-08-24T06:00:38.494Z,99974.50
2022-08-24T06:03:27.081Z,99987.09
2022-08-24T06:06:15.871Z,99985.72
2022-08-24T06:09:05.540Z,99990.88
2022-08-24T06:11:54.499Z,99987.50
2022-08-24T06:14:47.579Z,99984.66
2022-08-24T06:17:38.482Z,99987.16
2022-08-24T06:20:27.297Z,99990.13
2022-08-24T06:23:15.724Z,99982.56
2022-08-24T06:26:29.608Z,99981.97
2022-08-24T06:29:18.264Z,99984.16
2022-08-24T06:32:09.015Z,99988.59
2022-08-24T06:34:57.737Z,99986.38
2022-08-24T06:37:47.860Z,99990.09
2022-08-24T06:40:36.322Z,99988.66
2022-08-24T06:43:25.117Z,99984.16
2022-08-24T06:46:15.031Z,99991.59
2022-08-24T06:49:08.954Z,99991.50
2022-08-24T06:52:03.354Z,100004.31
2022-08-24T06:54:53.136Z,99998.22
2022-08-24T06:57:41.777Z,100004.00
2022-08-24T07:00:31.653Z,100008.31
2022-08-24T07:03:20.869Z,100006.75
2022-08-24T07:06:18.898Z,100010.19
2022-08-24T07:09:07.433Z,100014.34
2022-08-24T07:11:57.236Z,100010.75
2022-08-24T07:14:45.689Z,100005.16
2022-08-24T07:17:34.105Z,100006.81
2022-08-24T07:20:23.412Z,100016.69
2022-08-24T07:23:41.133Z,100017.75
2022-08-24T07:26:31.378Z,100008.63
2022-08-24T07:32:30.018Z,100016.53
2022-08-24T07:35:19.073Z,100009.72
2022-08-24T07:38:08.174Z,100014.84
2022-08-24T07:41:20.193Z,100009.66
2022-08-24T07:44:06.675Z,100018.66
2022-08-24T07:46:55.166Z,100023.31
2022-08-24T07:49:43.826Z,100017.09
2022-08-24T07:52:32.281Z,100031.41
2022-08-24T07:55:21.030Z,100021.97
2022-08-24T07:58:11.357Z,100029.78
2022-08-24T08:01:00.626Z,100022.56
2022-08-24T08:03:50.386Z,100025.25
2022-08-24T08:06:39.118Z,100027.94
2022-08-24T08:09:28.685Z,100030.81
2022-08-24T08:12:17.251Z,100026.72
2022-08-24T08:15:16.899Z,100029.22
2022-08-24T08:18:16.073Z,100020.06
2022-08-24T08:21:26.837Z,100017.88
2022-08-24T08:24:15.139Z,100025.34
2022-08-24T08:27:04.553Z,100027.78
2022-08-24T08:29:58.434Z,100027.56
2022-08-24T08:32:48.358Z,100024.59
2022-08-24T08:35:37.759Z,100025.84
2022-08-24T08:38:27.574Z,100014.78
2022-08-24T08:41:51.113Z,100015.59
2022-08-24T08:45:00.201Z,100025.59
2022-08-24T08:48:43.727Z,100025.44
2022-08-24T08:51:53.056Z,100017.09
2022-08-24T08:54:48.564Z,100021.19
2022-08-24T08:58:00.565Z,100027.38
2022-08-24T09:00:57.110Z,100033.06
2022-08-24T09:04:21.254Z,100032.19
2022-08-24T09:07:26.136Z,100032.19
2022-08-24T09:10:40.529Z,100015.53
2022-08-24T09:16:21.387Z,100027.00
2022-08-24T09:19:31.708Z,100030.91
2022-08-24T09:22:22.026Z,100034.44
2022-08-24T09:25:26.609Z,100028.69
2022-08-24T09:28:37.923Z,100024.47
2022-08-24T09:31:44.878Z,100023.06
2022-08-24T09:34:39.511Z,100031.84
2022-08-24T09:37:34.891Z,100022.88
2022-08-24T09:40:37.540Z,100019.88
2022-08-24T09:44:16.299Z,100026.66
2022-08-24T09:47:30.602Z,100023.72
2022-08-24T09:50:51.177Z,100026.31
2022-08-24T09:54:14.206Z,100021.31
2022-08-24T09:57:20.127Z,100010.72
2022-08-24T10:00:15.394Z,100012.72
2022-08-24T10:03:15.233Z,100011.56
2022-08-24T10:06:27.889Z,100013.44
2022-08-24T10:09:45.334Z,100008.63
2022-08-24T10:12:44.546Z,100003.19
2022-08-24T10:15:37.628Z,100006.84
2022-08-24T10:18:39.691Z,99996.72
2022-08-24T10:21:41.170Z,99992.31
2022-08-24T10:25:01.776Z,99983.84
2022-08-24T10:27:56.575Z,99990.50
2022-08-24T10:31:04.700Z,99994.59
2022-08-24T10:34:03.805Z,99979.25
2022-08-24T10:37:19.411Z,99982.00
2022-08-24T10:40:23.528Z,99974.66
2022-08-24T10:43:46.260Z,99973.84
2022-08-24T10:46:45.415Z,99978.59
2022-08-24T10:50:11.159Z,99972.47
2022-08-24T10:53:21.109Z,99976.56
2022-08-24T10:56:12.102Z,99959.88
2022-08-24T10:59:10.761Z,99975.09
2022-08-24T11:02:11.928Z,99964.34
2022-08-24T11:05:05.739Z,99963.69
2022-08-24T11:07:58.493Z,99972.56
2022-08-24T11:10:47.163Z,99958.53
2022-08-24T11:13:36.760Z,99956.69
2022-08-24T11:16:28.044Z,99959.41
2022-08-24T11:19:32.025Z,99959.63
2022-08-24T11:22:31.804Z,99958.16
2022-08-24T11:25:23.484Z,99956.31
2022-08-24T11:28:19.316Z,99961.84
2022-08-24T11:31:10.730Z,99958.34
2022-08-24T11:34:01.321Z,99953.75
2022-08-24T11:36:49.768Z,99954.69
2022-08-24T11:39:39.706Z,99955.50
2022-08-24T11:42:43.227Z,99954.44
2022-08-24T11:45:36.485Z,99948.88
2022-08-24T11:48:36.024Z,99953.78
2022-08-24T11:51:36.524Z,99953.38
2022-08-24T11:54:32.364Z,99956.81
2022-08-24T11:57:28.286Z,99948.50
2022-08-24T12:00:19.798Z,99940.78
2022-08-24T12:03:26.113Z,99942.47
2022-08-24T12:06:27.640Z,99960.06
2022-08-24T12:09:45.730Z,99940.00
2022-08-24T12:12:40.847Z,99941.31
2022-08-24T12:15:42.467Z,99930.56
2022-08-24T12:18:35.307Z,99932.50
2022-08-24T12:21:26.176Z,99932.78
2022-08-24T12:24:16.710Z,99938.41
2022-08-24T12:27:10.659Z,99925.44
2022-08-24T12:30:05.355Z,99930.91
2022-08-24T12:32:57.823Z,99921.38
2022-08-24T12:35:48.662Z,99918.38
2022-08-24T12:38:40.550Z,99917.06
2022-08-24T12:41:32.090Z,99921.75
2022-08-24T12:44:20.618Z,99909.06
2022-08-24T12:47:13.434Z,99913.59
2022-08-24T12:50:05.454Z,99903.09
2022-08-24T12:53:26.424Z,99908.16
2022-08-24T12:56:51.627Z,99894.25
2022-08-24T12:59:41.487Z,99900.13
2022-08-24T13:02:37.141Z,99904.28
2022-08-24T13:05:41.694Z,99902.53
2022-08-24T13:08:38.036Z,99906.41
2022-08-24T13:11:31.767Z,99899.91
2022-08-24T13:14:22.115Z,99900.38
2022-08-24T13:17:13.965Z,99900.94
2022-08-24T13:20:21.307Z,99900.13
2022-08-24T13:23:18.630Z,99904.91
2022-08-24T13:26:23.266Z,99899.09
2022-08-24T13:29:11.852Z,99899.78
2022-08-24T13:32:00.495Z,99891.94
2022-08-24T13:34:51.033Z,99893.81
2022-08-24T13:37:41.842Z,99894.06
2022-08-24T13:40:30.522Z,99881.06
2022-08-24T13:43:20.232Z,99879.69
2022-08-24T13:46:16.871Z,99877.59
2022-08-24T13:49:20.711Z,99878.63
2022-08-24T13:52:16.750Z,99879.59
2022-08-24T13:55:27.174Z,99875.81
2022-08-24T13:58:27.012Z,99877.69
2022-08-24T14:01:25.643Z,99875.22
2022-08-24T14:04:31.361Z,99865.09
2022-08-24T14:07:21.890Z,99862.50
2022-08-24T14:10:15.306Z,99863.91
2022-08-24T14:13:07.652Z,99862.50
2022-08-24T14:16:13.921Z,99869.00
2022-08-24T14:19:08.648Z,99864.81
2022-08-24T14:22:02.150Z,99864.22
2022-08-24T14:24:58.519Z,99864.09
2022-08-24T14:27:49.258Z,99858.47
2022-08-24T14:30:46.776Z,99852.13
2022-08-24T14:33:38.807Z,99846.94
2022-08-24T14:36:42.320Z,99842.38
2022-08-24T14:39:36.123Z,99847.97
2022-08-24T14:42:34.483Z,99836.78
2022-08-24T14:45:28.173Z,99835.13
2022-08-24T14:48:22.169Z,99829.88
2022-08-24T14:51:16.780Z,99830.47
2022-08-24T14:54:15.521Z,99836.72
2022-08-24T14:57:18.106Z,99835.69
2022-08-24T15:00:12.222Z,99830.63
2022-08-24T15:03:24.802Z,99833.78
2022-08-24T15:06:27.784Z,99823.97
2022-08-24T15:09:23.880Z,99827.31
2022-08-24T15:12:15.395Z,99825.84
2022-08-24T15:15:10.384Z,99816.31
2022-08-24T15:18:06.799Z,99816.59
2022-08-24T15:21:09.980Z,99818.09
2022-08-24T15:24:10.277Z,99813.78
2022-08-24T15:27:44.131Z,99820.88
2022-08-24T15:30:35.827Z,99819.59
2022-08-24T15:33:24.758Z,99826.53
2022-08-24T15:36:14.625Z,99823.59
2022-08-24T15:39:04.709Z,99816.91
2022-08-24T15:41:53.164Z,99811.88
2022-08-24T15:44:44.175Z,99810.28
2022-08-24T15:47:34.154Z,99816.78
2022-08-24T15:50:25.789Z,99813.50
2022-08-24T15:53:30.698Z,99817.28
2022-08-24T15:56:35.835Z,99815.72
2022-08-24T15:59:29.222Z,99826.28
2022-08-24T16:02:29.057Z,99821.34
2022-08-24T16:05:21.733Z,99826.34
2022-08-24T16:08:13.273Z,99812.34
2022-08-24T16:11:08.802Z,99820.38
2022-08-24T16:13:57.254Z,99835.09
2022-08-24T16:16:46.309Z,99825.28
2022-08-24T16:19:36.273Z,99826.63
2022-08-24T16:22:32.323Z,99825.25
2022-08-24T16:25:25.922Z,99824.84
2022-08-24T16:28:34.587Z,99827.97
2022-08-24T16:31:47.055Z,99831.00
2022-08-24T16:34:37.086Z,99830.41
2022-08-24T16:37:26.080Z,99833.31
2022-08-24T16:40:14.575Z,99831.69
2022-08-24T16:43:03.942Z,99827.00
2022-08-24T16:45:52.614Z,99833.81
2022-08-24T16:48:41.222Z,99827.69
2022-08-24T16:51:31.037Z,99827.72
2022-08-24T16:54:19.644Z,99825.91
2022-08-24T16:57:12.945Z,99828.22
2022-08-24T17:00:01.429Z,99827.84
2022-08-24T17:02:50.017Z,99829.72
2022-08-24T17:05:38.541Z,99834.03
2022-08-24T17:08:29.877Z,99833.03
2022-08-24T17:11:19.453Z,99828.13
2022-08-24T17:14:07.907Z,99837.78
2022-08-24T17:16:56.396Z,99833.06
2022-08-24T17:19:44.926Z,99828.78
2022-08-24T17:22:33.439Z,99827.94
2022-08-24T17:25:23.361Z,99829.19
2022-08-24T17:28:11.939Z,99835.34
2022-08-24T17:31:00.513Z,99835.75
2022-08-24T17:33:49.175Z,99838.00
2022-08-24T17:36:37.848Z,99847.69
2022-08-24T17:41:28.848Z,99849.25
2022-08-24T17:44:21.233Z,99857.25
2022-08-24T17:47:09.751Z,99855.19
2022-08-24T17:50:00.774Z,99858.91
2022-08-24T17:52:59.128Z,99856.22
2022-08-24T17:55:49.124Z,99861.97
2022-08-24T17:58:59.024Z,99854.91
2022-08-24T18:01:47.770Z,99859.38
2022-08-24T18:04:36.974Z,99860.78
2022-08-24T18:07:42.682Z,99856.66
2022-08-24T18:10:34.472Z,99862.72
2022-08-24T18:13:22.997Z,99865.31
2022-08-24T18:16:16.873Z,99867.25
2022-08-24T18:19:05.599Z,99871.28
2022-08-24T18:21:54.225Z,99872.75
2022-08-24T18:24:42.972Z,99878.50
2022-08-24T18:27:32.283Z,99874.16
2022-08-24T18:30:25.196Z,99881.50
2022-08-24T18:33:18.771Z,99880.41
2022-08-24T18:36:07.835Z,99882.94
2022-08-24T18:38:56.470Z,99888.22
2022-08-24T18:41:49.163Z,99886.56
2022-08-24T18:44:38.188Z,99887.78
2022-08-24T18:47:26.684Z,99892.31
2022-08-24T18:50:16.618Z,99891.97
2022-08-24T18:53:05.479Z,99890.28
2022-08-24T18:55:54.082Z,99896.38
2022-08-24T18:58:42.586Z,99897.47
2022-08-24T19:01:31.156Z,99893.03
2022-08-24T19:04:19.801Z,99899.03
2022-08-24T19:07:19.291Z,99901.09
2022-08-24T19:10:09.831Z,99904.63
2022-08-24T19:12:59.951Z,99901.97
2022-08-24T19:15:50.997Z,99902.16
2022-08-24T19:18:39.713Z,99904.63
2022-08-24T19:21:28.311Z,99905.94
2022-08-24T19:24:18.645Z,99903.09
2022-08-24T19:27:07.669Z,99904.56
2022-08-24T19:29:56.560Z,99904.47
2022-08-24T19:32:45.138Z,99906.75
2022-08-24T19:35:34.153Z,99902.56
2022-08-24T19:38:25.875Z,99898.44
2022-08-24T19:41:17.538Z,99906.13
2022-08-24T19:44:27.391Z,99901.22
2022-08-24T19:47:16.740Z,99903.84
2022-08-24T19:50:07.745Z,99903.13
2022-08-24T19:52:57.550Z,99905.09
2022-08-24T19:55:50.123Z,99905.41
2022-08-24T19:58:44.397Z,99903.91
2022-08-24T20:01:35.433Z,99905.03
2022-08-24T20:04:24.028Z,99907.84
2022-08-24T20:07:14.148Z,99907.97
2022-08-24T20:10:05.024Z,99908.13
2022-08-24T20:13:01.797Z,99909.44
2022-08-24T20:15:52.422Z,99914.19
2022-08-24T20:18:41.103Z,99903.97
2022-08-24T20:21:30.245Z,99904.25
2022-08-24T20:24:18.745Z,99910.53
2022-08-24T20:27:07.382Z,99910.81
2022-08-24T20:29:56.175Z,99908.50
2022-08-24T20:32:47.956Z,99906.66
2022-08-24T20:35:37.006Z,99906.81
2022-08-24T20:38:25.531Z,99914.91
2022-08-24T20:41:17.977Z,99915.72
2022-08-24T20:44:07.806Z,99905.19
2022-08-24T20:46:56.449Z,99916.41
2022-08-24T20:49:46.377Z,99909.66
2022-08-24T20:52:34.904Z,99906.59
2022-08-24T20:55:23.640Z,99905.59
2022-08-24T20:58:12.208Z,99901.31
2022-08-24T21:01:00.848Z,99907.03
2022-08-24T21:03:49.453Z,99904.34
2022-08-24T21:06:40.437Z,99912.31
2022-08-24T21:09:28.994Z,99914.72
2022-08-24T21:12:17.482Z,99908.94
2022-08-24T21:15:07.045Z,99915.19
2022-08-24T21:17:55.604Z,99912.53
2022-08-24T21:20:44.706Z,99914.50
2022-08-24T21:23:54.032Z,99916.91
2022-08-24T21:26:42.607Z,99919.06
2022-08-24T21:29:31.370Z,99914.97
2022-08-24T21:32:37.543Z,99920.19
2022-08-24T21:35:25.979Z,99918.56
2022-08-24T21:38:14.508Z,99916.75
2022-08-24T21:41:05.603Z,99911.03
2022-08-24T21:43:54.587Z,99912.09
2022-08-24T21:46:43.412Z,99903.88
2022-08-24T21:49:32.007Z,99912.31
2022-08-24T21:52:20.490Z,99915.34
2022-08-24T21:55:14.662Z,99921.44
2022-08-24T21:58:05.887Z,99915.47
2022-08-24T22:00:54.363Z,99912.84
2022-08-24T22:03:47.771Z,99916.97
2022-08-24T22:06:36.247Z,99907.25
2022-08-24T22:09:24.741Z,99915.84
2022-08-24T22:12:13.240Z,99919.31
2022-08-24T22:15:03.165Z,99914.06
2022-08-24T22:17:52.814Z,99916.97
2022-08-24T22:20:41.423Z,99922.34
2022-08-24T22:23:29.904Z,99921.00
2022-08-24T22:26:18.358Z,99921.31
2022-08-24T22:29:07.656Z,99916.03
2022-08-24T22:31:57.499Z,99917.53
2022-08-24T22:34:46.097Z,99919.38
2022-08-24T22:37:34.943Z,99911.28
2022-08-24T22:40:24.416Z,99911.81
2022-08-24T22:43:13.205Z,99923.72
2022-08-24T22:46:01.677Z,99915.63
2022-08-24T22:48:51.515Z,99912.97
2022-08-24T22:51:40.367Z,99901.25
2022-08-24T22:54:29.568Z,99916.47
2022-08-24T22:57:19.869Z,99907.72
2022-08-24T23:00:11.176Z,99910.19
2022-08-24T23:03:05.650Z,99909.88
2022-08-24T23:05:55.625Z,99913.06
2022-08-24T23:08:44.090Z,99912.72
2022-08-24T23:11:32.670Z,99915.53
2022-08-24T23:14:21.602Z,99919.81
2022-08-24T23:17:10.138Z,99912.22
2022-08-24T23:20:00.553Z,99910.28
2022-08-24T23:22:50.666Z,99905.28
2022-08-24T23:25:39.193Z,99914.19
2022-08-24T23:28:27.665Z,99910.88
2022-08-24T23:31:17.245Z,99907.56
2022-08-24T23:34:07.834Z,99915.63
2022-08-24T23:36:56.548Z,99901.25
2022-08-24T23:39:46.439Z,99913.78
2022-08-24T23:42:34.980Z,99909.63
2022-08-24T23:45:28.279Z,99911.44
2022-08-24T23:48:17.128Z,99901.88
2022-08-24T23:51:06.019Z,99885.66
2022-08-24T23:53:54.493Z,99895.91
2022-08-24T23:56:45.707Z,99892.44
2022-08-24T23:59:34.157Z,99892.56
